createdAt,value
2018-01-02T00:00:11.658Z,5.50
2018-01-02T00:02:39.129Z,5.50
2018-01-02T00:05:06.552Z,5.50
2018-01-02T00:07:34.058Z,5.50
2018-01-02T00:10:01.585Z,5.40
2018-01-02T00:12:29.004Z,5.40
2018-01-02T00:14:56.433Z,5.40
2018-01-02T00:17:23.965Z,5.50
2018-01-02T00:19:51.440Z,5.50
2018-01-02T00:22:19.049Z,5.50
2018-01-02T00:24:46.484Z,5.40
2018-01-02T00:27:13.901Z,5.40
2018-01-02T00:29:41.561Z,5.40
2018-01-02T00:32:09.196Z,5.40
2018-01-02T00:34:36.616Z,5.40
2018-01-02T00:37:04.243Z,5.40
2018-01-02T00:39:32.000Z,5.40
2018-01-02T00:41:59.465Z,5.40
2018-01-02T00:44:26.893Z,5.30
2018-01-02T00:46:54.325Z,5.40
2018-01-02T00:49:22.757Z,5.30
2018-01-02T00:51:50.197Z,5.40
2018-01-02T00:54:17.614Z,5.40
2018-01-02T00:56:45.135Z,5.30
2018-01-02T00:59:12.571Z,5.30
2018-01-02T01:01:39.996Z,5.30
2018-01-02T01:04:07.505Z,5.20
2018-01-02T01:06:34.937Z,5.20
2018-01-02T01:09:02.353Z,5.30
2018-01-02T01:11:29.777Z,5.20
2018-01-02T01:13:57.529Z,5.30
2018-01-02T01:16:25.102Z,5.20
2018-01-02T01:18:52.529Z,5.20
2018-01-02T01:21:20.013Z,5.20
2018-01-02T01:23:47.441Z,5.20
2018-01-02T01:26:14.928Z,5.20
2018-01-02T01:28:42.583Z,5.20
2018-01-02T01:31:10.150Z,5.30
2018-01-02T01:33:37.619Z,5.30
2018-01-02T01:36:05.250Z,5.30
2018-01-02T01:38:32.837Z,5.30
2018-01-02T01:41:00.469Z,5.30
2018-01-02T01:43:27.957Z,5.30
2018-01-02T01:45:55.397Z,5.30
2018-01-02T01:48:22.972Z,5.30
2018-01-02T01:50:50.753Z,5.40
2018-01-02T01:53:18.368Z,5.40
2018-01-02T01:55:45.872Z,5.40
2018-01-02T01:58:13.301Z,5.40
2018-01-02T02:00:40.876Z,5.40
2018-01-02T02:03:08.298Z,5.40
2018-01-02T02:05:36.717Z,5.50
2018-01-02T02:08:04.134Z,5.50
2018-01-02T02:10:31.642Z,5.40
2018-01-02T02:12:59.093Z,5.40
2018-01-02T02:15:26.518Z,5.50
2018-01-02T02:17:53.953Z,5.40
2018-01-02T02:20:21.378Z,5.50
2018-01-02T02:22:48.805Z,5.50
2018-01-02T02:25:16.226Z,5.50
2018-01-02T02:27:44.449Z,5.50
2018-01-02T02:30:11.878Z,5.50
2018-01-02T02:32:39.365Z,5.50
2018-01-02T02:35:07.012Z,5.60
2018-01-02T02:37:34.438Z,5.60
2018-01-02T02:40:02.638Z,5.60
2018-01-02T02:42:30.117Z,5.50
2018-01-02T02:44:57.582Z,5.60
2018-01-02T02:47:25.343Z,5.60
2018-01-02T02:49:52.789Z,5.60
2018-01-02T02:52:20.210Z,5.60
2018-01-02T02:54:47.629Z,5.60
2018-01-02T02:57:15.178Z,5.60
2018-01-02T02:59:42.601Z,5.60
2018-01-02T03:02:10.033Z,5.60
2018-01-02T03:04:37.544Z,5.60
2018-01-02T03:07:04.981Z,5.70
2018-01-02T03:09:32.405Z,5.70
2018-01-02T03:11:59.925Z,5.70
2018-01-02T03:14:27.349Z,5.70
2018-01-02T03:16:55.317Z,5.70
2018-01-02T03:19:22.757Z,5.70
2018-01-02T03:21:51.152Z,5.70
2018-01-02T03:24:18.580Z,5.60
2018-01-02T03:26:46.119Z,5.60
2018-01-02T03:29:13.645Z,5.70
2018-01-02T03:31:41.065Z,5.60
2018-01-02T03:34:08.582Z,5.70
2018-01-02T03:36:36.013Z,5.70
2018-01-02T03:39:03.461Z,5.60
2018-01-02T03:41:30.887Z,5.50
2018-01-02T03:43:58.414Z,5.50
2018-01-02T03:46:25.864Z,5.50
2018-01-02T03:48:53.633Z,5.50
2018-01-02T03:51:21.278Z,5.50
2018-01-02T03:53:48.818Z,5.50
2018-01-02T03:56:16.246Z,5.50
2018-01-02T03:58:43.665Z,5.50
2018-01-02T04:01:11.101Z,5.50
2018-01-02T04:03:38.633Z,5.40
2018-01-02T04:06:06.085Z,5.40
2018-01-02T04:08:33.600Z,5.40
2018-01-02T04:11:01.362Z,5.40
2018-01-02T04:13:28.790Z,5.40
2018-01-02T04:15:56.219Z,5.40
2018-01-02T04:18:23.741Z,5.40
2018-01-02T04:20:51.184Z,5.40
2018-01-02T04:23:18.652Z,5.50
2018-01-02T04:25:46.078Z,5.50
2018-01-02T04:28:13.578Z,5.50
2018-01-02T04:30:41.097Z,5.50
2018-01-02T04:33:08.725Z,5.50
2018-01-02T04:35:36.154Z,5.50
2018-01-02T04:38:03.720Z,5.50
2018-01-02T04:40:31.198Z,5.50
2018-01-02T04:42:58.928Z,5.40
2018-01-02T04:45:26.366Z,5.40
2018-01-02T04:47:53.858Z,5.40
2018-01-02T04:50:21.315Z,5.50
2018-01-02T04:52:49.077Z,5.40
2018-01-02T04:55:16.712Z,5.40
2018-01-02T04:57:44.298Z,5.50
2018-01-02T05:00:11.756Z,5.50
2018-01-02T05:02:39.514Z,5.50
2018-01-02T05:05:06.962Z,5.50
2018-01-02T05:07:34.378Z,5.50
2018-01-02T05:10:01.802Z,5.60
2018-01-02T05:12:29.262Z,5.60
2018-01-02T05:14:56.805Z,5.60
2018-01-02T05:17:24.285Z,5.60
2018-01-02T05:19:51.692Z,5.70
2018-01-02T05:22:19.129Z,5.70
2018-01-02T05:24:46.550Z,5.70
2018-01-02T05:27:13.985Z,5.70
2018-01-02T05:29:41.429Z,5.70
2018-01-02T05:32:08.924Z,5.70
2018-01-02T05:34:36.396Z,5.70
2018-01-02T05:37:03.780Z,5.70
2018-01-02T05:39:31.996Z,5.70
2018-01-02T05:41:59.798Z,5.70
2018-01-02T05:44:27.185Z,5.70
2018-01-02T05:46:54.617Z,5.70
2018-01-02T05:49:22.041Z,5.70
2018-01-02T05:51:49.465Z,5.70
2018-01-02T05:54:16.950Z,5.70
2018-01-02T05:56:44.508Z,5.70
2018-01-02T05:59:11.973Z,5.70
2018-01-02T06:01:39.430Z,5.70
2018-01-02T06:04:06.856Z,5.80
2018-01-02T06:06:34.277Z,5.80
2018-01-02T06:09:01.721Z,5.80
2018-01-02T06:11:29.160Z,5.80
2018-01-02T06:13:56.590Z,5.80
2018-01-02T06:16:24.176Z,5.80
2018-01-02T06:18:51.642Z,5.80
2018-01-02T06:21:19.070Z,5.80
2018-01-02T06:23:46.490Z,5.80
2018-01-02T06:26:13.938Z,5.80
2018-01-02T06:28:41.350Z,5.80
2018-01-02T06:31:08.925Z,5.80
2018-01-02T06:33:36.553Z,5.90
2018-01-02T06:36:04.148Z,5.90
2018-01-02T06:38:31.601Z,5.90
2018-01-02T06:40:59.242Z,5.90
2018-01-02T06:43:26.830Z,5.90
2018-01-02T06:45:54.252Z,5.90
2018-01-02T06:48:21.684Z,5.90
2018-01-02T06:50:49.197Z,6.00
2018-01-02T06:53:16.632Z,6.00
2018-01-02T06:55:44.118Z,6.00
2018-01-02T06:58:11.570Z,6.00
2018-01-02T07:00:38.988Z,6.00
2018-01-02T07:03:06.485Z,6.00
2018-01-02T07:05:33.954Z,6.00
2018-01-02T07:08:01.386Z,6.00
2018-01-02T07:10:28.860Z,6.00
2018-01-02T07:12:56.317Z,6.00
2018-01-02T07:15:23.732Z,6.00
2018-01-02T07:17:51.233Z,6.00
2018-01-02T07:20:18.654Z,6.10
2018-01-02T07:22:46.065Z,6.10
2018-01-02T07:25:13.497Z,6.10
2018-01-02T07:27:40.996Z,6.10
2018-01-02T07:30:08.420Z,6.00
2018-01-02T07:32:35.980Z,6.00
2018-01-02T07:35:03.461Z,6.00
2018-01-02T07:37:30.857Z,6.00
2018-01-02T07:39:58.361Z,6.00
2018-01-02T07:42:25.785Z,6.10
2018-01-02T07:44:53.216Z,6.10
2018-01-02T07:47:21.424Z,6.10
2018-01-02T07:49:49.026Z,6.10
2018-01-02T07:52:16.566Z,6.10
2018-01-02T07:54:44.028Z,6.10
2018-01-02T07:57:11.453Z,6.10
2018-01-02T07:59:38.877Z,6.10
2018-01-02T08:02:06.305Z,6.10
2018-01-02T08:04:33.921Z,6.10
2018-01-02T08:07:01.554Z,6.10
2018-01-02T08:09:29.085Z,6.10
2018-01-02T08:11:56.542Z,6.10
2018-01-02T08:14:23.981Z,6.10
2018-01-02T08:16:51.400Z,6.10
2018-01-02T08:19:18.913Z,6.10
2018-01-02T08:21:46.391Z,6.10
2018-01-02T08:24:13.842Z,6.10
2018-01-02T08:26:41.260Z,6.10
2018-01-02T08:29:08.697Z,6.20
2018-01-02T08:31:36.117Z,6.20
2018-01-02T08:34:03.533Z,6.20
2018-01-02T08:36:31.112Z,6.20
2018-01-02T08:38:58.595Z,6.20
2018-01-02T08:41:26.221Z,6.20
2018-01-02T08:43:53.645Z,6.20
2018-01-02T08:46:21.880Z,6.20
2018-01-02T08:48:49.324Z,6.20
2018-01-02T08:51:16.791Z,6.20
2018-01-02T08:53:44.228Z,6.20
2018-01-02T08:56:11.654Z,6.20
2018-01-02T08:58:39.076Z,6.10
2018-01-02T09:01:06.640Z,6.10
2018-01-02T09:03:34.386Z,6.10
2018-01-02T09:06:01.833Z,6.10
2018-01-02T09:08:29.292Z,6.10
2018-01-02T09:10:56.725Z,6.10
2018-01-02T09:13:29.732Z,6.00
2018-01-02T09:15:57.157Z,6.10
2018-01-02T09:18:24.667Z,6.10
2018-01-02T09:20:52.619Z,6.10
2018-01-02T09:23:20.181Z,6.10
2018-01-02T09:25:47.614Z,6.00
2018-01-02T09:28:15.029Z,6.00
2018-01-02T09:30:42.465Z,6.10
2018-01-02T09:33:09.922Z,6.10
2018-01-02T09:35:37.481Z,6.10
2018-01-02T09:38:05.137Z,6.20
2018-01-02T09:40:32.583Z,6.30
2018-01-02T09:43:00.070Z,6.30
2018-01-02T09:45:27.545Z,6.40
2018-01-02T09:47:54.957Z,6.40
2018-01-02T09:50:22.481Z,6.30
2018-01-02T09:52:49.899Z,6.20
2018-01-02T09:55:17.369Z,6.20
2018-01-02T09:57:44.937Z,6.20
2018-01-02T10:00:12.669Z,6.20
2018-01-02T10:02:40.106Z,6.20
2018-01-02T10:05:07.543Z,6.20
2018-01-02T10:07:35.204Z,6.30
2018-01-02T10:10:02.678Z,6.20
2018-01-02T10:12:30.138Z,6.30
2018-01-02T10:14:57.641Z,6.30
2018-01-02T10:17:25.097Z,6.30
2018-01-02T10:19:52.647Z,6.40
2018-01-02T10:22:20.113Z,6.40
2018-01-02T10:24:47.775Z,6.50
2018-01-02T10:27:15.214Z,6.50
2018-01-02T10:29:42.683Z,6.50
2018-01-02T10:32:10.140Z,6.60
2018-01-02T10:34:37.604Z,6.60
2018-01-02T10:37:05.060Z,6.60
2018-01-02T10:39:32.510Z,6.60
2018-01-02T10:42:00.015Z,6.70
2018-01-02T10:44:27.365Z,6.70
2018-01-02T10:46:55.009Z,6.70
2018-01-02T10:49:22.442Z,6.80
2018-01-02T10:51:49.946Z,6.80
2018-01-02T10:54:17.412Z,6.70
2018-01-02T10:56:45.133Z,6.80
2018-01-02T10:59:12.885Z,7.00
2018-01-02T11:01:40.360Z,7.20
2018-01-02T11:04:07.807Z,7.30
2018-01-02T11:06:35.241Z,7.30
2018-01-02T11:09:02.723Z,7.30
2018-01-02T11:11:32.020Z,7.30
2018-01-02T11:13:59.466Z,7.30
2018-01-02T11:16:26.931Z,7.30
2018-01-02T11:18:54.405Z,7.20
2018-01-02T11:21:22.042Z,7.20
2018-01-02T11:23:49.628Z,7.10
2018-01-02T11:26:17.070Z,7.10
2018-01-02T11:28:44.502Z,7.10
2018-01-02T11:31:11.942Z,7.10
2018-01-02T11:33:39.372Z,7.10
2018-01-02T11:36:06.826Z,7.20
2018-01-02T11:38:34.277Z,7.30
2018-01-02T11:41:01.717Z,7.20
2018-01-02T11:43:29.279Z,7.20
2018-01-02T11:45:56.706Z,7.20
2018-01-02T11:48:24.153Z,7.20
2018-01-02T11:50:51.569Z,7.20
2018-01-02T11:53:19.113Z,7.20
2018-01-02T11:55:46.537Z,7.20
2018-01-02T11:58:14.029Z,7.20
2018-01-02T12:00:41.477Z,7.20
2018-01-02T12:03:08.983Z,7.20
2018-01-02T12:05:36.705Z,7.20
2018-01-02T12:08:04.153Z,7.10
2018-01-02T12:10:31.622Z,7.10
2018-01-02T12:12:59.093Z,7.10
2018-01-02T12:15:26.545Z,7.10
2018-01-02T12:17:53.989Z,7.20
2018-01-02T12:20:21.418Z,7.20
2018-01-02T12:22:48.924Z,7.20
2018-01-02T12:25:16.361Z,7.30
2018-01-02T12:27:43.806Z,7.40
2018-01-02T12:30:11.237Z,7.50
2018-01-02T12:32:38.734Z,7.50
2018-01-02T12:35:06.158Z,7.50
2018-01-02T12:37:33.576Z,7.50
2018-01-02T12:40:01.072Z,7.40
2018-01-02T12:42:28.596Z,7.30
2018-01-02T12:44:56.053Z,7.30
2018-01-02T12:47:23.492Z,7.20
2018-01-02T12:49:51.065Z,7.20
2018-01-02T12:52:18.493Z,7.20
2018-01-02T12:54:45.921Z,7.20
2018-01-02T12:57:14.133Z,7.10
2018-01-02T12:59:41.564Z,7.10
2018-01-02T13:02:09.062Z,7.10
2018-01-02T13:04:36.494Z,7.10
2018-01-02T13:07:03.977Z,7.10
2018-01-02T13:09:31.416Z,7.10
2018-01-02T13:11:58.928Z,7.00
2018-01-02T13:14:26.468Z,7.00
2018-01-02T13:16:53.925Z,7.00
2018-01-02T13:19:21.544Z,7.00
2018-01-02T13:21:49.021Z,7.10
2018-01-02T13:24:16.461Z,7.00
2018-01-02T13:26:43.941Z,7.10
2018-01-02T13:29:11.413Z,7.10
2018-01-02T13:31:38.869Z,7.00
2018-01-02T13:34:06.429Z,7.00
2018-01-02T13:36:33.850Z,7.10
2018-01-02T13:39:01.293Z,7.10
2018-01-02T13:41:28.728Z,7.20
2018-01-02T13:43:56.173Z,7.20
2018-01-02T13:46:23.709Z,7.20
2018-01-02T13:48:51.385Z,7.20
2018-01-02T13:51:18.870Z,7.20
2018-01-02T13:53:46.304Z,7.10
2018-01-02T13:56:13.783Z,7.10
2018-01-02T13:58:42.018Z,7.20
2018-01-02T14:01:09.710Z,7.10
2018-01-02T14:03:37.460Z,7.10
2018-01-02T14:06:05.221Z,7.10
2018-01-02T14:08:33.458Z,7.10
2018-01-02T14:11:01.053Z,7.20
2018-01-02T14:13:28.489Z,7.20
2018-01-02T14:15:55.979Z,7.20
2018-01-02T14:18:23.442Z,7.10
2018-01-02T14:20:50.906Z,7.10
2018-01-02T14:23:18.541Z,7.10
2018-01-02T14:25:45.991Z,7.20
2018-01-02T14:28:13.473Z,7.20
2018-01-02T14:30:40.912Z,7.20
2018-01-02T14:33:08.529Z,7.10
2018-01-02T14:35:35.989Z,7.10
2018-01-02T14:38:04.205Z,7.00
2018-01-02T14:40:31.784Z,7.00
2018-01-02T14:42:59.441Z,7.00
2018-01-02T14:45:26.865Z,6.90
2018-01-02T14:47:54.782Z,6.90
2018-01-02T14:50:22.213Z,6.90
2018-01-02T14:52:49.637Z,6.90
2018-01-02T14:55:17.137Z,6.90
2018-01-02T14:57:44.565Z,6.90
2018-01-02T15:00:11.993Z,6.90
2018-01-02T15:02:39.516Z,6.90
2018-01-02T15:05:06.962Z,6.90
2018-01-02T15:07:34.392Z,6.90
2018-01-02T15:10:01.895Z,6.80
2018-01-02T15:12:29.430Z,6.80
2018-01-02T15:14:57.058Z,6.80
2018-01-02T15:17:25.257Z,6.90
2018-01-02T15:19:52.821Z,6.90
2018-01-02T15:22:20.300Z,6.90
2018-01-02T15:24:47.869Z,6.90
2018-01-02T15:27:15.311Z,6.80
2018-01-02T15:29:42.778Z,6.80
2018-01-02T15:32:10.227Z,6.80
2018-01-02T15:34:37.728Z,6.80
2018-01-02T15:37:05.654Z,6.80
2018-01-02T15:39:33.221Z,6.80
2018-01-02T15:42:00.724Z,6.70
2018-01-02T15:44:28.130Z,6.70
2018-01-02T15:46:55.637Z,6.70
2018-01-02T15:49:23.062Z,6.70
2018-01-02T15:51:50.833Z,6.70
2018-01-02T15:54:18.280Z,6.70
2018-01-02T15:56:45.761Z,6.60
2018-01-02T15:59:13.185Z,6.60
2018-01-02T16:01:40.613Z,6.60
2018-01-02T16:04:08.113Z,6.60
2018-01-02T16:06:35.568Z,6.50
2018-01-02T16:09:02.990Z,6.50
2018-01-02T16:11:30.417Z,6.50
2018-01-02T16:13:57.838Z,6.50
2018-01-02T16:16:25.342Z,6.50
2018-01-02T16:18:52.887Z,6.50
2018-01-02T16:21:20.510Z,6.40
2018-01-02T16:23:47.986Z,6.50
2018-01-02T16:26:15.476Z,6.40
2018-01-02T16:28:42.892Z,6.40
2018-01-02T16:31:10.335Z,6.40
2018-01-02T16:33:37.913Z,6.40
2018-01-02T16:36:05.349Z,6.50
2018-01-02T16:38:32.829Z,6.40
2018-01-02T16:41:00.479Z,6.50
2018-01-02T16:43:27.954Z,6.40
2018-01-02T16:45:55.373Z,6.40
2018-01-02T16:48:22.965Z,6.30
2018-01-02T16:50:50.732Z,6.40
2018-01-02T16:53:18.148Z,6.40
2018-01-02T16:55:45.648Z,6.40
2018-01-02T16:58:13.114Z,6.50
2018-01-02T17:00:40.536Z,6.50
2018-01-02T17:03:07.959Z,6.50
2018-01-02T17:05:35.481Z,6.50
2018-01-02T17:08:02.926Z,6.50
2018-01-02T17:10:30.389Z,6.50
2018-01-02T17:12:57.825Z,6.50
2018-01-02T17:15:25.306Z,6.50
2018-01-02T17:17:52.769Z,6.50
2018-01-02T17:20:20.230Z,6.50
2018-01-02T17:22:47.670Z,6.50
2018-01-02T17:25:15.147Z,6.50
2018-01-02T17:27:42.588Z,6.50
2018-01-02T17:30:10.006Z,6.60
2018-01-02T17:32:37.512Z,6.60
2018-01-02T17:35:04.937Z,6.60
2018-01-02T17:37:32.365Z,6.60
2018-01-02T17:39:59.789Z,6.60
2018-01-02T17:42:27.344Z,6.60
2018-01-02T17:44:54.761Z,6.60
2018-01-02T17:47:22.195Z,6.60
2018-01-02T17:49:49.720Z,6.60
2018-01-02T17:52:17.149Z,6.60
2018-01-02T17:54:44.632Z,6.60
2018-01-02T17:57:12.065Z,6.70
2018-01-02T17:59:39.486Z,6.70
2018-01-02T18:02:07.010Z,6.80
2018-01-02T18:04:34.424Z,6.80
2018-01-02T18:07:01.850Z,6.80
2018-01-02T18:09:29.386Z,6.90
2018-01-02T18:11:56.804Z,6.80
2018-01-02T18:14:24.309Z,6.90
2018-01-02T18:16:51.737Z,6.80
2018-01-02T18:19:19.217Z,6.90
2018-01-02T18:21:46.636Z,6.90
2018-01-02T18:24:14.070Z,6.90
2018-01-02T18:26:41.494Z,6.90
2018-01-02T18:29:09.002Z,7.00
2018-01-02T18:31:36.405Z,7.00
2018-01-02T18:34:03.962Z,7.00
2018-01-02T18:36:31.386Z,6.90
2018-01-02T18:38:58.882Z,7.00
2018-01-02T18:41:26.306Z,7.00
2018-01-02T18:43:53.805Z,7.00
2018-01-02T18:46:21.257Z,7.00
2018-01-02T18:48:48.721Z,6.90
2018-01-02T18:51:16.346Z,6.90
2018-01-02T18:53:43.777Z,6.90
2018-01-02T18:56:11.194Z,6.80
2018-01-02T18:58:38.731Z,6.80
2018-01-02T19:01:06.240Z,6.70
2018-01-02T19:03:33.760Z,6.70
2018-01-02T19:06:01.182Z,6.70
2018-01-02T19:08:28.614Z,6.70
2018-01-02T19:10:56.037Z,6.70
2018-01-02T19:13:23.474Z,6.70
2018-01-02T19:15:50.901Z,6.60
2018-01-02T19:18:19.126Z,6.60
2018-01-02T19:20:46.544Z,6.50
2018-01-02T19:23:14.040Z,6.50
2018-01-02T19:25:41.504Z,6.50
2018-01-02T19:28:09.265Z,6.50
2018-01-02T19:30:36.685Z,6.40
2018-01-02T19:33:04.178Z,6.40
2018-01-02T19:35:31.640Z,6.30
2018-01-02T19:37:59.065Z,6.20
2018-01-02T19:40:26.477Z,6.20
2018-01-02T19:42:53.899Z,6.10
2018-01-02T19:45:21.384Z,6.10
2018-01-02T19:47:48.800Z,6.00
2018-01-02T19:50:16.305Z,6.00
2018-01-02T19:52:43.745Z,6.00
2018-01-02T19:55:11.210Z,6.00
2018-01-02T19:57:38.693Z,6.00
2018-01-02T20:00:06.132Z,6.00
2018-01-02T20:02:33.541Z,6.00
2018-01-02T20:05:01.041Z,6.00
2018-01-02T20:07:28.594Z,6.00
2018-01-02T20:09:56.021Z,5.90
2018-01-02T20:12:23.443Z,5.90
2018-01-02T20:14:50.969Z,5.90
2018-01-02T20:17:18.421Z,5.80
2018-01-02T20:19:45.852Z,5.80
2018-01-02T20:22:13.280Z,5.80
2018-01-02T20:24:40.792Z,5.80
2018-01-02T20:27:08.258Z,5.80
2018-01-02T20:29:35.685Z,5.80
2018-01-02T20:32:03.169Z,5.80
2018-01-02T20:34:30.601Z,5.80
2018-01-02T20:36:58.084Z,5.80
2018-01-02T20:39:25.536Z,5.80
2018-01-02T20:41:52.956Z,5.80
2018-01-02T20:44:21.298Z,5.80
2018-01-02T20:46:48.736Z,5.80
2018-01-02T20:49:16.157Z,5.90
2018-01-02T20:51:44.563Z,5.90
2018-01-02T20:54:12.136Z,5.80
2018-01-02T20:56:39.557Z,5.90
2018-01-02T20:59:07.053Z,5.90
2018-01-02T21:01:34.465Z,5.90
2018-01-02T21:04:01.970Z,5.90
2018-01-02T21:06:29.400Z,6.00
2018-01-02T21:08:56.805Z,6.00
2018-01-02T21:11:24.249Z,6.00
2018-01-02T21:13:51.694Z,6.00
2018-01-02T21:16:19.174Z,6.00
2018-01-02T21:18:46.588Z,6.10
2018-01-02T21:21:14.098Z,6.10
2018-01-02T21:23:41.638Z,6.10
2018-01-02T21:26:09.052Z,6.10
2018-01-02T21:28:36.482Z,6.10
2018-01-02T21:31:03.905Z,6.10
2018-01-02T21:33:31.366Z,6.20
2018-01-02T21:35:58.785Z,6.30
2018-01-02T21:38:26.283Z,6.40
2018-01-02T21:40:53.700Z,6.50
2018-01-02T21:43:21.133Z,6.50
2018-01-02T21:45:48.945Z,6.50
2018-01-02T21:48:16.512Z,6.50
2018-01-02T21:50:43.931Z,6.50
2018-01-02T21:53:12.122Z,6.50
2018-01-02T21:55:39.681Z,6.50
2018-01-02T21:58:07.164Z,6.50
2018-01-02T22:00:34.633Z,6.50
2018-01-02T22:03:02.183Z,6.60
2018-01-02T22:05:29.640Z,6.60
2018-01-02T22:07:57.057Z,6.70
2018-01-02T22:10:24.485Z,6.70
2018-01-02T22:12:51.905Z,6.70
2018-01-02T22:15:19.478Z,6.70
2018-01-02T22:17:47.241Z,6.80
2018-01-02T22:20:14.761Z,6.80
2018-01-02T22:22:42.366Z,6.80
2018-01-02T22:25:09.798Z,6.70
2018-01-02T22:27:37.228Z,6.60
2018-01-02T22:30:05.413Z,6.60
2018-01-02T22:32:32.920Z,6.60
2018-01-02T22:35:00.321Z,6.60
2018-01-02T22:37:27.740Z,6.60
2018-01-02T22:39:55.177Z,6.60
2018-01-02T22:42:22.632Z,6.60
2018-01-02T22:44:50.079Z,6.60
2018-01-02T22:47:17.524Z,6.60
2018-01-02T22:49:45.025Z,6.60
2018-01-02T22:52:12.484Z,6.60
2018-01-02T22:54:39.952Z,6.60
2018-01-02T22:57:07.378Z,6.60
2018-01-02T22:59:34.844Z,6.70
2018-01-02T23:02:02.268Z,6.70
2018-01-02T23:04:29.856Z,6.70
2018-01-02T23:06:57.318Z,6.70
2018-01-02T23:09:24.772Z,6.70
2018-01-02T23:11:52.205Z,6.70
2018-01-02T23:14:19.638Z,6.70
2018-01-02T23:16:47.062Z,6.80
2018-01-02T23:19:14.501Z,6.70
2018-01-02T23:21:41.998Z,6.80
2018-01-02T23:24:09.531Z,6.80
2018-01-02T23:26:37.160Z,6.80
2018-01-02T23:29:04.583Z,6.90
2018-01-02T23:31:32.105Z,6.90
2018-01-02T23:33:59.661Z,6.90
2018-01-02T23:36:27.080Z,6.90
2018-01-02T23:38:54.617Z,6.90
2018-01-02T23:41:22.245Z,7.00
2018-01-02T23:43:49.836Z,7.00
2018-01-02T23:46:17.433Z,7.00
2018-01-02T23:48:44.944Z,7.10
2018-01-02T23:51:12.363Z,7.10
2018-01-02T23:53:39.827Z,7.10
2018-01-02T23:56:07.224Z,7.10
2018-01-02T23:58:34.743Z,7.20
